createdAt,value
2023-03-04T00:00:33.839Z,5.40
2023-03-04T00:03:01.752Z,4.30
2023-03-04T00:05:31.116Z,4.10
2023-03-04T00:07:58.989Z,4.20
2023-03-04T00:10:26.868Z,5.00
2023-03-04T00:12:56.104Z,4.30
2023-03-04T00:15:24.001Z,4.20
2023-03-04T00:17:51.929Z,4.30
2023-03-04T00:20:19.961Z,3.90
2023-03-04T00:22:48.186Z,4.30
2023-03-04T00:25:16.205Z,3.90
2023-03-04T00:27:44.107Z,4.20
2023-03-04T00:30:14.226Z,4.40
2023-03-04T00:32:42.216Z,4.40
2023-03-04T00:35:10.611Z,5.70
2023-03-04T00:37:38.470Z,4.30
2023-03-04T00:40:07.657Z,5.30
2023-03-04T00:42:35.528Z,4.40
2023-03-04T00:45:03.534Z,4.90
2023-03-04T00:47:32.840Z,4.10
2023-03-04T00:50:00.684Z,5.50
2023-03-04T00:52:28.558Z,4.00
2023-03-04T00:54:56.457Z,4.20
2023-03-04T00:57:24.340Z,5.80
2023-03-04T00:59:52.204Z,4.70
2023-03-04T01:02:20.150Z,4.40
2023-03-04T01:04:49.446Z,4.00
2023-03-04T01:07:17.344Z,4.20
2023-03-04T01:09:45.211Z,5.20
2023-03-04T01:12:13.470Z,4.10
2023-03-04T01:14:41.386Z,4.30
2023-03-04T01:17:09.274Z,4.20
2023-03-04T01:19:37.135Z,4.20
2023-03-04T01:22:06.447Z,4.00
2023-03-04T01:24:34.331Z,3.90
2023-03-04T01:27:02.190Z,4.20
2023-03-04T01:29:30.394Z,4.30
2023-03-04T01:31:58.330Z,4.40
2023-03-04T01:34:26.274Z,5.30
2023-03-04T01:36:54.189Z,3.60
2023-03-04T01:39:23.447Z,4.10
2023-03-04T01:41:51.355Z,5.70
2023-03-04T01:44:19.345Z,4.90
2023-03-04T01:46:51.128Z,3.90
2023-03-04T01:49:19.646Z,5.90
2023-03-04T01:51:50.628Z,4.20
2023-03-04T01:54:18.937Z,5.50
2023-03-04T01:56:49.539Z,5.50
2023-03-04T01:59:20.090Z,4.50
2023-03-04T02:01:49.959Z,4.60
2023-03-04T02:04:19.911Z,4.30
2023-03-04T02:06:48.957Z,5.00
2023-03-04T02:09:17.721Z,4.40
2023-03-04T02:11:46.495Z,4.50
2023-03-04T02:14:17.363Z,4.20
2023-03-04T02:16:45.439Z,3.70
2023-03-04T02:19:20.577Z,5.90
2023-03-04T02:21:48.461Z,4.40
2023-03-04T02:24:22.201Z,4.70
2023-03-04T02:26:51.451Z,5.40
2023-03-04T02:29:20.014Z,4.20
2023-03-04T02:31:50.499Z,4.30
2023-03-04T02:34:20.290Z,4.20
2023-03-04T02:36:50.931Z,4.70
2023-03-04T02:39:26.642Z,4.90
2023-03-04T02:41:56.980Z,4.30
2023-03-04T02:44:27.976Z,5.40
2023-03-04T02:46:56.899Z,4.60
2023-03-04T02:49:27.063Z,3.50
2023-03-04T02:52:01.503Z,5.40
2023-03-04T02:54:29.673Z,4.10
2023-03-04T02:57:01.227Z,4.40
2023-03-04T02:59:29.247Z,5.70
2023-03-04T03:01:57.188Z,4.20
2023-03-04T03:04:26.615Z,4.70
2023-03-04T03:06:54.524Z,4.80
2023-03-04T03:09:22.543Z,4.20
2023-03-04T03:11:50.420Z,5.00
2023-03-04T03:14:19.713Z,4.40
2023-03-04T03:16:47.598Z,4.30
2023-03-04T03:19:15.484Z,5.20
2023-03-04T03:21:43.473Z,5.60
2023-03-04T03:24:11.381Z,3.60
2023-03-04T03:26:39.877Z,6.10
2023-03-04T03:29:07.789Z,4.40
2023-03-04T03:31:37.070Z,4.30
2023-03-04T03:34:05.125Z,4.40
2023-03-04T03:36:33.094Z,5.50
2023-03-04T03:39:00.981Z,4.10
2023-03-04T03:41:28.886Z,4.30
2023-03-04T03:43:56.955Z,4.30
2023-03-04T03:46:24.924Z,5.70
2023-03-04T03:48:54.168Z,4.60
2023-03-04T03:51:22.047Z,6.40
2023-03-04T03:53:50.016Z,4.20
2023-03-04T03:56:17.882Z,4.40
2023-03-04T03:58:45.830Z,6.00
2023-03-04T04:01:13.692Z,4.40
2023-03-04T04:03:41.867Z,3.80
2023-03-04T04:06:11.135Z,5.50
2023-03-04T04:08:39.140Z,5.20
2023-03-04T04:11:07.077Z,5.10
2023-03-04T04:13:35.560Z,6.00
2023-03-04T04:16:04.674Z,4.80
2023-03-04T04:18:32.919Z,4.40
2023-03-04T04:21:00.853Z,4.30
2023-03-04T04:23:30.128Z,4.20
2023-03-04T04:25:58.585Z,6.00
2023-03-04T04:28:26.687Z,5.60
2023-03-04T04:30:54.689Z,4.80
2023-03-04T04:33:22.618Z,4.30
2023-03-04T04:35:50.593Z,4.80
2023-03-04T04:38:18.769Z,4.40
2023-03-04T04:40:48.036Z,4.30
2023-03-04T04:43:15.898Z,4.30
2023-03-04T04:45:43.829Z,4.10
2023-03-04T04:48:11.765Z,4.30
2023-03-04T04:50:39.615Z,4.50
2023-03-04T04:53:07.494Z,4.40
2023-03-04T04:55:35.685Z,6.00
2023-03-04T04:58:07.076Z,4.30
2023-03-04T05:00:35.048Z,4.60
2023-03-04T05:03:02.951Z,5.30
2023-03-04T05:05:30.883Z,6.20
2023-03-04T05:07:58.744Z,5.30
2023-03-04T05:10:26.660Z,4.10
2023-03-04T05:12:54.547Z,4.20
2023-03-04T05:15:23.820Z,4.20
2023-03-04T05:17:51.723Z,4.10
2023-03-04T05:20:19.721Z,4.30
2023-03-04T05:22:47.678Z,4.00
2023-03-04T05:25:15.640Z,4.60
2023-03-04T05:27:43.528Z,5.10
2023-03-04T05:30:12.820Z,4.40
2023-03-04T05:32:42.106Z,4.30
2023-03-04T05:35:10.985Z,3.80
2023-03-04T05:37:38.817Z,4.30
2023-03-04T05:40:08.032Z,4.00
2023-03-04T05:42:35.939Z,4.20
2023-03-04T05:45:04.299Z,4.10
2023-03-04T05:47:32.121Z,3.80
2023-03-04T05:50:01.340Z,4.00
2023-03-04T05:52:29.237Z,6.10
2023-03-04T05:54:57.109Z,5.00
2023-03-04T05:57:25.010Z,3.70
2023-03-04T05:59:52.882Z,5.30
2023-03-04T06:02:20.802Z,3.90
2023-03-04T06:04:48.691Z,5.70
2023-03-04T06:07:17.922Z,4.20
2023-03-04T06:09:46.103Z,3.70
2023-03-04T06:12:14.206Z,3.50
2023-03-04T06:14:42.078Z,3.90
2023-03-04T06:17:09.967Z,3.60
2023-03-04T06:19:37.997Z,3.80
2023-03-04T06:22:06.127Z,3.60
2023-03-04T06:24:35.396Z,3.70
2023-03-04T06:27:03.344Z,4.00
2023-03-04T06:29:31.249Z,3.50
2023-03-04T06:31:59.131Z,3.60
2023-03-04T06:34:28.164Z,4.20
2023-03-04T06:36:56.108Z,3.80
2023-03-04T06:39:24.012Z,3.90
2023-03-04T06:41:53.241Z,4.00
2023-03-04T06:44:21.182Z,4.20
2023-03-04T06:46:49.104Z,3.70
2023-03-04T06:49:17.226Z,5.30
2023-03-04T06:51:45.088Z,4.10
2023-03-04T06:54:13.076Z,3.90
2023-03-04T06:56:41.020Z,4.00
2023-03-04T06:59:10.271Z,4.70
2023-03-04T07:01:38.149Z,5.50
2023-03-04T07:04:06.183Z,4.10
2023-03-04T07:06:34.162Z,4.40
2023-03-04T07:09:02.058Z,4.00
2023-03-04T07:11:29.934Z,4.00
2023-03-04T07:13:58.189Z,6.60
2023-03-04T07:16:27.442Z,4.30
2023-03-04T07:18:55.351Z,5.30
2023-03-04T07:21:23.248Z,4.30
2023-03-04T07:23:51.290Z,4.70
2023-03-04T07:26:19.366Z,4.40
2023-03-04T07:28:47.425Z,4.60
2023-03-04T07:31:23.176Z,4.20
2023-03-04T07:33:52.615Z,4.30
2023-03-04T07:36:20.811Z,5.80
2023-03-04T07:38:50.435Z,4.60
2023-03-04T07:41:19.160Z,4.80
2023-03-04T07:43:47.103Z,5.80
2023-03-04T07:46:15.712Z,4.70
2023-03-04T07:48:43.687Z,4.70
2023-03-04T07:51:15.065Z,4.90
2023-03-04T07:53:45.466Z,6.20
2023-03-04T07:56:15.216Z,6.50
2023-03-04T07:58:43.462Z,4.90
2023-03-04T08:01:13.295Z,5.70
2023-03-04T08:03:41.651Z,4.90
2023-03-04T08:06:10.868Z,5.50
2023-03-04T08:08:40.328Z,5.00
2023-03-04T08:11:10.139Z,5.60
2023-03-04T08:13:38.471Z,5.10
2023-03-04T08:16:08.164Z,5.50
2023-03-04T08:18:36.107Z,5.40
2023-03-04T08:21:03.982Z,7.40
2023-03-04T08:23:31.867Z,5.40
2023-03-04T08:26:01.106Z,5.60
2023-03-04T08:28:29.011Z,5.70
2023-03-04T08:30:56.871Z,5.40
2023-03-04T08:33:24.825Z,5.40
2023-03-04T08:35:53.748Z,6.70
2023-03-04T08:38:21.600Z,5.90
2023-03-04T08:40:54.216Z,7.10
2023-03-04T08:43:24.531Z,6.10
2023-03-04T08:45:53.438Z,6.20
2023-03-04T08:48:22.384Z,7.00
2023-03-04T08:50:50.981Z,7.30
2023-03-04T08:53:19.972Z,6.10
2023-03-04T08:55:47.893Z,6.30
2023-03-04T08:58:15.967Z,7.90
2023-03-04T09:00:48.414Z,6.60
2023-03-04T09:03:19.403Z,6.40
2023-03-04T09:05:48.508Z,6.30
2023-03-04T09:08:17.962Z,6.90
2023-03-04T09:10:46.377Z,7.90
2023-03-04T09:13:16.187Z,8.90
2023-03-04T09:15:47.338Z,6.90
2023-03-04T09:18:15.663Z,7.00
2023-03-04T09:20:43.567Z,7.10
2023-03-04T09:23:11.628Z,8.10
2023-03-04T09:25:40.316Z,8.20
2023-03-04T09:28:08.494Z,6.80
2023-03-04T09:30:36.466Z,6.50
2023-03-04T09:33:05.741Z,6.80
2023-03-04T09:35:33.858Z,7.30
2023-03-04T09:38:02.065Z,6.80
2023-03-04T09:40:33.543Z,6.80
2023-03-04T09:43:03.436Z,6.80
2023-03-04T09:45:37.913Z,7.70
2023-03-04T09:48:10.274Z,7.10
2023-03-04T09:50:46.708Z,7.00
2023-03-04T09:53:22.191Z,6.60
2023-03-04T09:55:52.128Z,7.00
2023-03-04T09:58:33.009Z,6.40
2023-03-04T10:01:08.407Z,6.90
2023-03-04T10:03:44.603Z,7.70
2023-03-04T10:06:15.979Z,7.00
2023-03-04T10:08:47.912Z,7.20
2023-03-04T10:11:23.428Z,7.30
2023-03-04T10:13:58.612Z,7.20
2023-03-04T10:16:34.346Z,7.40
2023-03-04T10:19:29.304Z,7.40
2023-03-04T10:21:57.602Z,7.40
2023-03-04T10:24:28.897Z,7.20
2023-03-04T10:27:03.403Z,8.20
2023-03-04T10:29:33.684Z,7.10
2023-03-04T10:32:01.723Z,6.90
2023-03-04T10:34:31.125Z,6.80
2023-03-04T10:37:01.990Z,6.70
2023-03-04T10:39:32.269Z,6.90
2023-03-04T10:42:02.429Z,6.60
2023-03-04T10:44:31.493Z,7.20
2023-03-04T10:46:59.959Z,7.50
2023-03-04T10:49:30.354Z,7.70
2023-03-04T10:52:03.745Z,7.60
2023-03-04T10:54:34.610Z,7.60
2023-03-04T10:57:05.261Z,7.70
2023-03-04T10:59:43.549Z,7.70
2023-03-04T11:02:23.957Z,7.90
2023-03-04T11:05:05.775Z,8.00
2023-03-04T11:07:53.543Z,8.00
2023-03-04T11:10:26.007Z,8.10
2023-03-04T11:13:00.696Z,8.00
2023-03-04T11:15:31.263Z,7.50
2023-03-04T11:18:03.806Z,7.70
2023-03-04T11:20:35.466Z,7.50
2023-03-04T11:23:07.135Z,7.40
2023-03-04T11:25:37.560Z,8.30
2023-03-04T11:28:13.005Z,7.20
2023-03-04T11:30:44.350Z,7.00
2023-03-04T11:33:21.179Z,6.80
2023-03-04T11:36:07.815Z,6.70
2023-03-04T11:38:40.454Z,6.70
2023-03-04T11:41:14.116Z,6.30
2023-03-04T11:43:45.593Z,6.30
2023-03-04T11:46:44.446Z,6.40
2023-03-04T11:49:51.416Z,6.60
2023-03-04T11:52:29.527Z,6.60
2023-03-04T11:55:13.812Z,6.40
2023-03-04T11:57:48.788Z,6.40
2023-03-04T12:00:33.107Z,6.50
2023-03-04T12:03:23.346Z,6.70
2023-03-04T12:05:59.953Z,6.80
2023-03-04T12:08:44.363Z,6.80
2023-03-04T12:11:20.482Z,7.00
2023-03-04T12:14:03.083Z,7.00
2023-03-04T12:17:01.745Z,7.10
2023-03-04T12:19:32.648Z,7.20
2023-03-04T12:22:23.968Z,7.40
2023-03-04T12:25:19.791Z,7.40
2023-03-04T12:27:57.591Z,7.50
2023-03-04T12:30:39.766Z,10.00
2023-03-04T12:33:21.470Z,8.10
2023-03-04T12:35:59.432Z,7.60
2023-03-04T12:38:39.739Z,7.50
2023-03-04T12:41:23.921Z,8.40
2023-03-04T12:44:00.283Z,7.30
2023-03-04T12:46:36.307Z,7.20
2023-03-04T12:49:24.078Z,7.50
2023-03-04T12:51:59.208Z,7.10
2023-03-04T12:54:33.507Z,6.90
2023-03-04T12:57:09.824Z,7.10
2023-03-04T12:59:41.694Z,7.10
2023-03-04T13:02:38.711Z,8.30
2023-03-04T13:05:33.084Z,6.80
2023-03-04T13:08:10.141Z,7.10
2023-03-04T13:10:38.160Z,6.70
2023-03-04T13:13:27.429Z,7.10
2023-03-04T13:16:03.347Z,7.20
2023-03-04T13:18:33.271Z,7.20
2023-03-04T13:21:22.072Z,7.10
2023-03-04T13:23:50.311Z,6.80
2023-03-04T13:26:30.918Z,7.30
2023-03-04T13:29:33.836Z,6.30
2023-03-04T13:32:03.635Z,7.70
2023-03-04T13:34:47.224Z,5.70
2023-03-04T13:37:32.355Z,5.80
2023-03-04T13:40:34.540Z,6.10
2023-03-04T13:43:28.923Z,6.00
2023-03-04T13:45:58.318Z,6.00
2023-03-04T13:48:33.110Z,5.90
2023-03-04T13:51:01.307Z,5.60
2023-03-04T13:53:34.375Z,6.70
2023-03-04T13:56:29.882Z,5.90
2023-03-04T13:59:13.244Z,5.70
2023-03-04T14:01:59.830Z,6.80
2023-03-04T14:04:31.780Z,5.50
2023-03-04T14:07:01.283Z,5.50
2023-03-04T14:09:30.740Z,5.90
2023-03-04T14:12:02.447Z,5.80
2023-03-04T14:14:37.652Z,6.90
2023-03-04T14:17:16.465Z,6.00
2023-03-04T14:19:46.695Z,5.90
2023-03-04T14:22:23.436Z,6.80
2023-03-04T14:24:58.769Z,6.10
2023-03-04T14:27:26.728Z,6.40
2023-03-04T14:29:58.679Z,7.00
2023-03-04T14:32:29.663Z,6.60
2023-03-04T14:35:00.347Z,6.50
2023-03-04T14:37:32.748Z,6.60
2023-03-04T14:40:02.579Z,6.30
2023-03-04T14:42:38.916Z,6.80
2023-03-04T14:45:08.153Z,7.90
2023-03-04T14:47:40.621Z,6.80
2023-03-04T14:50:15.405Z,7.90
2023-03-04T14:52:45.905Z,6.60
2023-03-04T14:55:23.593Z,6.30
2023-03-04T14:57:58.163Z,6.30
2023-03-04T15:00:30.586Z,5.60
2023-03-04T15:03:01.250Z,5.80
2023-03-04T15:05:31.754Z,7.60
2023-03-04T15:08:01.737Z,5.30
2023-03-04T15:10:32.210Z,6.80
2023-03-04T15:13:02.106Z,5.50
2023-03-04T15:15:37.840Z,5.40
2023-03-04T15:18:23.882Z,6.00
2023-03-04T15:21:00.487Z,5.80
2023-03-04T15:23:29.568Z,5.90
2023-03-04T15:25:59.693Z,6.30
2023-03-04T15:28:31.327Z,6.10
2023-03-04T15:30:59.306Z,6.40
2023-03-04T15:33:28.724Z,5.60
2023-03-04T15:35:59.331Z,6.80
2023-03-04T15:38:28.222Z,6.90
2023-03-04T15:40:58.259Z,5.60
2023-03-04T15:43:26.458Z,5.70
2023-03-04T15:45:54.631Z,6.40
2023-03-04T15:48:22.684Z,6.10
2023-03-04T15:50:56.688Z,6.10
2023-03-04T15:53:32.283Z,5.20
2023-03-04T15:56:00.519Z,5.30
2023-03-04T15:58:29.616Z,5.20
2023-03-04T16:00:57.657Z,6.20
2023-03-04T16:03:25.629Z,5.50
2023-03-04T16:05:54.892Z,5.20
2023-03-04T16:08:25.389Z,6.80
2023-03-04T16:10:54.495Z,5.90
2023-03-04T16:13:24.763Z,4.90
2023-03-04T16:15:52.804Z,5.20
2023-03-04T16:18:20.862Z,5.40
2023-03-04T16:20:50.645Z,5.30
2023-03-04T16:23:23.065Z,5.20
2023-03-04T16:25:53.616Z,6.40
2023-03-04T16:28:21.538Z,5.50
2023-03-04T16:30:50.089Z,5.10
2023-03-04T16:33:18.223Z,7.30
2023-03-04T16:35:47.219Z,5.40
2023-03-04T16:38:25.825Z,5.40
2023-03-04T16:40:54.022Z,5.40
2023-03-04T16:43:22.048Z,6.20
2023-03-04T16:45:50.208Z,5.90
2023-03-04T16:48:20.226Z,5.00
2023-03-04T16:50:48.249Z,4.80
2023-03-04T16:53:29.040Z,5.30
2023-03-04T16:55:59.673Z,4.80
2023-03-04T16:58:27.795Z,5.10
2023-03-04T17:00:56.177Z,4.90
2023-03-04T17:03:24.233Z,5.10
2023-03-04T17:05:52.135Z,4.90
2023-03-04T17:08:20.035Z,4.70
2023-03-04T17:10:50.367Z,5.70
2023-03-04T17:13:18.287Z,4.60
2023-03-04T17:15:46.894Z,5.50
2023-03-04T17:18:14.887Z,5.60
2023-03-04T17:20:42.840Z,4.60
2023-03-04T17:23:10.975Z,4.80
2023-03-04T17:25:38.949Z,4.90
2023-03-04T17:28:08.368Z,4.50
2023-03-04T17:30:36.296Z,4.90
2023-03-04T17:33:04.207Z,6.90
2023-03-04T17:35:32.323Z,4.80
2023-03-04T17:38:00.274Z,5.70
2023-03-04T17:40:28.187Z,5.10
2023-03-04T17:42:56.069Z,5.50
2023-03-04T17:45:25.477Z,5.90
2023-03-04T17:47:54.616Z,4.40
2023-03-04T17:50:23.377Z,4.60
2023-03-04T17:52:52.340Z,5.00
2023-03-04T17:55:20.258Z,5.00
2023-03-04T17:57:48.906Z,4.70
2023-03-04T18:00:18.080Z,4.20
2023-03-04T18:02:47.576Z,4.50
2023-03-04T18:05:16.264Z,4.90
2023-03-04T18:07:44.197Z,4.80
2023-03-04T18:10:13.103Z,4.40
2023-03-04T18:12:41.123Z,4.30
2023-03-04T18:15:09.597Z,4.30
2023-03-04T18:17:37.568Z,4.40
2023-03-04T18:20:08.442Z,4.40
2023-03-04T18:22:36.502Z,4.50
2023-03-04T18:25:06.106Z,4.70
2023-03-04T18:27:41.004Z,4.10
2023-03-04T18:30:14.055Z,3.90
2023-03-04T18:32:51.939Z,3.90
2023-03-04T18:35:22.397Z,3.50
2023-03-04T18:37:50.469Z,3.80
2023-03-04T18:40:18.974Z,3.80
2023-03-04T18:42:47.080Z,3.70
2023-03-04T18:45:16.897Z,4.60
2023-03-04T18:47:49.836Z,4.90
2023-03-04T18:50:18.938Z,5.90
2023-03-04T18:52:48.394Z,3.80
2023-03-04T18:55:18.052Z,5.10
2023-03-04T18:57:50.153Z,4.50
2023-03-04T19:00:20.880Z,4.10
2023-03-04T19:02:52.145Z,3.70
2023-03-04T19:05:22.352Z,3.70
2023-03-04T19:07:51.785Z,3.70
2023-03-04T19:10:21.258Z,4.70
2023-03-04T19:12:49.188Z,3.70
2023-03-04T19:15:18.155Z,4.50
2023-03-04T19:17:46.277Z,3.70
2023-03-04T19:20:15.743Z,3.70
2023-03-04T19:22:43.795Z,3.70
2023-03-04T19:25:13.699Z,3.60
2023-03-04T19:27:41.742Z,4.60
2023-03-04T19:30:10.674Z,4.80
2023-03-04T19:32:38.565Z,3.60
2023-03-04T19:35:07.096Z,3.70
2023-03-04T19:37:34.984Z,3.60
2023-03-04T19:40:04.914Z,3.70
2023-03-04T19:42:34.742Z,3.60
2023-03-04T19:45:09.163Z,3.60
2023-03-04T19:47:39.807Z,3.60
2023-03-04T19:50:09.924Z,3.60
2023-03-04T19:52:38.155Z,3.60
2023-03-04T19:55:06.737Z,3.60
2023-03-04T19:57:36.085Z,3.60
2023-03-04T20:00:04.343Z,3.50
2023-03-04T20:02:32.216Z,3.60
2023-03-04T20:05:00.257Z,4.60
2023-03-04T20:07:28.132Z,3.50
2023-03-04T20:09:56.329Z,3.60
2023-03-04T20:12:24.259Z,3.50
2023-03-04T20:15:07.050Z,3.50
2023-03-04T20:17:34.927Z,3.50
2023-03-04T20:20:03.451Z,3.50
2023-03-04T20:22:31.422Z,3.50
2023-03-04T20:24:59.320Z,3.40
2023-03-04T20:27:27.155Z,3.80
2023-03-04T20:29:55.172Z,3.30
2023-03-04T20:32:24.553Z,3.30
2023-03-04T20:35:07.600Z,4.10
2023-03-04T20:37:36.032Z,3.20
2023-03-04T20:40:04.252Z,3.20
2023-03-04T20:42:32.273Z,3.20
2023-03-04T20:45:00.145Z,3.80
2023-03-04T20:47:29.406Z,3.20
2023-03-04T20:49:57.295Z,4.40
2023-03-04T20:52:25.334Z,3.20
2023-03-04T20:54:53.288Z,3.20
2023-03-04T20:57:21.310Z,3.20
2023-03-04T21:00:47.431Z,3.20
2023-03-04T21:03:17.866Z,3.20
2023-03-04T21:05:45.746Z,3.10
2023-03-04T21:08:13.615Z,3.20
2023-03-04T21:10:41.519Z,3.20
2023-03-04T21:13:12.641Z,3.20
2023-03-04T21:15:47.680Z,3.20
2023-03-04T21:18:17.153Z,3.40
2023-03-04T21:20:45.571Z,3.10
2023-03-04T21:23:13.432Z,3.60
2023-03-04T21:25:42.348Z,3.10
2023-03-04T21:28:10.532Z,3.10
2023-03-04T21:30:38.372Z,3.10
2023-03-04T21:33:07.054Z,3.10
2023-03-04T21:35:36.996Z,3.10
2023-03-04T21:38:04.914Z,3.10
2023-03-04T21:40:32.791Z,3.10
2023-03-04T21:43:00.658Z,4.60
2023-03-04T21:45:28.613Z,3.10
2023-03-04T21:47:56.538Z,3.00
2023-03-04T21:50:24.365Z,3.00
2023-03-04T21:52:53.596Z,3.00
2023-03-04T21:55:21.467Z,1.20
2023-03-04T21:57:49.334Z,3.00
2023-03-04T22:00:17.770Z,3.00
2023-03-04T22:02:45.708Z,3.00
2023-03-04T22:05:13.639Z,3.00
2023-03-04T22:07:41.546Z,3.00
2023-03-04T22:10:12.180Z,3.80
2023-03-04T22:12:40.071Z,3.00
2023-03-04T22:15:09.070Z,3.00
2023-03-04T22:17:37.163Z,3.00
2023-03-04T22:20:06.197Z,3.00
2023-03-04T22:22:34.079Z,2.90
2023-03-04T22:25:02.056Z,3.00
2023-03-04T22:27:32.666Z,3.00
2023-03-04T22:30:00.508Z,2.90
2023-03-04T22:32:28.383Z,2.90
2023-03-04T22:34:56.693Z,2.90
2023-03-04T22:37:24.520Z,2.90
2023-03-04T22:39:52.401Z,2.90
2023-03-04T22:42:20.259Z,2.80
2023-03-04T22:44:49.468Z,2.90
2023-03-04T22:47:17.305Z,2.80
2023-03-04T22:49:47.373Z,2.90
2023-03-04T22:52:15.232Z,2.90
2023-03-04T22:54:43.097Z,2.90
2023-03-04T22:57:10.969Z,2.80
2023-03-04T22:59:38.852Z,2.90
2023-03-04T23:02:08.340Z,2.80
2023-03-04T23:04:36.268Z,2.80
2023-03-04T23:07:04.122Z,2.80
2023-03-04T23:09:31.968Z,2.80
2023-03-04T23:11:59.826Z,2.80
2023-03-04T23:14:27.722Z,2.80
2023-03-04T23:16:55.741Z,2.80
2023-03-04T23:19:25.025Z,2.80
2023-03-04T23:21:52.876Z,2.80
2023-03-04T23:24:20.748Z,2.70
2023-03-04T23:26:48.588Z,2.70
2023-03-04T23:29:17.170Z,2.70
2023-03-04T23:31:45.279Z,2.70
2023-03-04T23:34:13.324Z,2.70
2023-03-04T23:36:42.721Z,3.30
2023-03-04T23:39:12.317Z,2.70
2023-03-04T23:41:40.709Z,2.70
2023-03-04T23:44:09.156Z,2.70
2023-03-04T23:46:37.731Z,2.70
2023-03-04T23:49:06.425Z,2.70
2023-03-04T23:51:34.737Z,2.70
2023-03-04T23:54:04.005Z,2.70
2023-03-04T23:56:32.341Z,2.70
2023-03-04T23:59:01.251Z,2.70
